createdAt,value
2022-08-20T00:04:21.280Z,16.75
2022-08-20T00:09:23.137Z,16.60
2022-08-20T00:14:24.730Z,13.77
2022-08-20T00:19:27.096Z,11.93
2022-08-20T00:24:29.545Z,11.25
2022-08-20T00:29:31.672Z,12.77
2022-08-20T00:34:33.300Z,11.20
2022-08-20T00:39:35.364Z,14.60
2022-08-20T00:44:37.262Z,12.30
2022-08-20T00:49:38.968Z,12.50
2022-08-20T00:54:55.305Z,10.98
2022-08-20T00:59:58.816Z,14.95
2022-08-20T01:05:00.749Z,13.82
2022-08-20T01:10:10.348Z,10.27
2022-08-20T01:15:16.752Z,10.85
2022-08-20T01:20:34.808Z,11.68
2022-08-20T01:30:43.097Z,15.90
2022-08-20T01:35:44.863Z,13.05
2022-08-20T01:41:08.108Z,10.63
2022-08-20T01:46:10.407Z,15.15
2022-08-20T01:51:21.766Z,16.98
2022-08-20T01:56:31.070Z,14.48
2022-08-20T02:01:46.204Z,12.77
2022-08-20T02:06:57.674Z,17.75
2022-08-20T02:12:00.805Z,11.75
2022-08-20T02:17:02.701Z,12.50
2022-08-20T02:22:21.789Z,9.95
2022-08-20T02:27:23.718Z,12.35
2022-08-20T02:32:33.831Z,15.43
2022-08-20T02:37:37.578Z,12.00
2022-08-20T02:42:42.665Z,14.25
2022-08-20T02:47:46.048Z,15.88
2022-08-20T02:52:51.533Z,18.15
2022-08-20T02:57:59.961Z,13.93
2022-08-20T03:08:04.287Z,18.25
2022-08-20T03:13:11.311Z,21.05
2022-08-20T03:18:14.083Z,25.02
2022-08-20T03:23:17.307Z,26.80
2022-08-20T03:28:19.574Z,25.33
2022-08-20T03:33:21.678Z,32.60
2022-08-20T03:38:32.384Z,31.63
2022-08-20T03:43:35.298Z,34.47
2022-08-20T03:48:37.277Z,32.88
2022-08-20T03:53:39.008Z,38.30
2022-08-20T03:58:40.630Z,30.98
2022-08-20T04:03:42.312Z,31.73
2022-08-20T04:08:43.899Z,33.95
2022-08-20T04:13:45.485Z,32.58
2022-08-20T04:18:58.632Z,28.92
2022-08-20T04:24:05.785Z,30.80
2022-08-20T04:29:08.122Z,32.92
2022-08-20T04:34:09.748Z,28.88
2022-08-20T04:39:11.339Z,27.67
2022-08-20T04:44:12.980Z,27.90
2022-08-20T04:49:14.578Z,23.58
2022-08-20T04:54:16.209Z,25.73
2022-08-20T04:59:17.929Z,25.60
2022-08-20T05:04:19.509Z,23.98
2022-08-20T05:09:21.141Z,25.00
2022-08-20T05:14:22.722Z,25.70
2022-08-20T05:19:24.444Z,38.35
2022-08-20T05:24:26.445Z,42.90
2022-08-20T05:29:28.648Z,44.33
2022-08-20T05:34:30.364Z,39.15
2022-08-20T05:39:35.503Z,41.80
2022-08-20T05:44:39.451Z,39.08
2022-08-20T05:49:41.140Z,45.22
2022-08-20T05:54:42.729Z,41.17
2022-08-20T05:59:44.368Z,37.72
2022-08-20T06:04:46.087Z,38.88
2022-08-20T06:09:57.904Z,43.67
2022-08-20T06:14:59.656Z,43.17
2022-08-20T06:20:06.516Z,40.42
2022-08-20T06:25:10.309Z,44.25
2022-08-20T06:30:14.204Z,39.65
2022-08-20T06:35:19.770Z,41.03
2022-08-20T06:40:28.540Z,35.92
2022-08-20T06:45:32.793Z,38.10
2022-08-20T06:50:47.142Z,36.40
2022-08-20T06:55:55.374Z,35.00
2022-08-20T07:00:57.036Z,33.67
2022-08-20T07:05:59.402Z,37.13
2022-08-20T07:11:01.733Z,41.92
2022-08-20T07:16:05.116Z,43.13
2022-08-20T07:21:06.809Z,43.58
2022-08-20T07:26:08.637Z,43.92
2022-08-20T07:31:31.353Z,44.80
2022-08-20T07:36:33.309Z,44.83
2022-08-20T07:41:34.960Z,39.03
2022-08-20T07:46:36.572Z,48.08
2022-08-20T07:51:38.241Z,44.55
2022-08-20T07:56:39.836Z,43.00
2022-08-20T08:01:41.998Z,38.42
2022-08-20T08:06:45.361Z,39.65
2022-08-20T08:11:50.362Z,38.28
2022-08-20T08:16:55.250Z,37.80
2022-08-20T08:21:58.717Z,35.42
2022-08-20T08:27:00.472Z,40.55
2022-08-20T08:32:03.670Z,35.85
2022-08-20T08:37:06.170Z,33.63
2022-08-20T08:42:26.078Z,33.17
2022-08-20T08:47:34.672Z,32.88
2022-08-20T08:52:42.860Z,37.20
2022-08-20T08:57:46.641Z,32.40
2022-08-20T09:03:16.058Z,35.03
2022-08-20T09:08:24.381Z,30.33
2022-08-20T09:13:26.018Z,32.25
2022-08-20T09:18:27.976Z,33.30
2022-08-20T09:23:29.641Z,29.95
2022-08-20T09:28:32.225Z,31.38
2022-08-20T09:33:36.787Z,28.67
2022-08-20T09:38:38.364Z,31.92
2022-08-20T09:43:41.060Z,34.55
2022-08-20T09:48:42.682Z,30.35
2022-08-20T09:53:44.416Z,32.22
2022-08-20T09:58:49.481Z,30.38
2022-08-20T10:03:51.297Z,26.55
2022-08-20T10:08:52.900Z,33.47
2022-08-20T10:13:54.478Z,28.10
2022-08-20T10:18:56.968Z,28.77
2022-08-20T10:23:59.395Z,31.50
2022-08-20T10:29:01.003Z,32.58
2022-08-20T10:34:02.797Z,27.38
2022-08-20T10:39:04.593Z,28.70
2022-08-20T10:44:07.636Z,27.38
2022-08-20T10:49:09.315Z,27.67
2022-08-20T10:54:12.519Z,27.48
2022-08-20T10:59:14.474Z,29.90
2022-08-20T11:04:16.135Z,29.75
2022-08-20T11:09:17.773Z,28.65
2022-08-20T11:14:19.387Z,26.75
2022-08-20T11:19:21.192Z,24.40
2022-08-20T11:24:22.900Z,29.95
2022-08-20T11:29:24.913Z,26.80
2022-08-20T11:34:26.629Z,27.50
2022-08-20T11:39:28.399Z,25.20
2022-08-20T11:44:30.019Z,25.20
2022-08-20T11:49:34.491Z,30.70
2022-08-20T11:54:40.493Z,29.50
2022-08-20T11:59:42.368Z,28.05
2022-08-20T12:04:44.331Z,28.60
2022-08-20T12:09:51.107Z,26.90
2022-08-20T12:14:54.676Z,26.23
2022-08-20T12:19:58.849Z,24.38
2022-08-20T12:25:00.549Z,23.08
2022-08-20T12:30:07.660Z,23.95
2022-08-20T12:35:10.942Z,24.00
2022-08-20T12:40:18.225Z,29.05
2022-08-20T12:45:33.261Z,30.63
2022-08-20T12:50:37.576Z,24.27
2022-08-20T12:55:39.308Z,25.40
2022-08-20T13:00:47.481Z,22.77
2022-08-20T13:05:52.659Z,23.33
2022-08-20T13:10:54.289Z,26.08
2022-08-20T13:15:55.856Z,21.63
2022-08-20T13:20:57.453Z,24.20
2022-08-20T13:25:59.071Z,23.45
2022-08-20T13:31:02.145Z,22.52
2022-08-20T13:36:04.038Z,25.60
2022-08-20T13:41:05.760Z,25.88
2022-08-20T13:46:07.416Z,29.02
2022-08-20T13:51:09.037Z,22.35
2022-08-20T13:56:10.760Z,24.80
2022-08-20T14:01:12.505Z,21.52
2022-08-20T14:06:14.127Z,24.63
2022-08-20T14:11:17.756Z,21.20
2022-08-20T14:16:25.430Z,21.73
2022-08-20T14:21:29.692Z,30.50
2022-08-20T14:26:31.247Z,25.75
2022-08-20T14:31:32.868Z,24.08
2022-08-20T14:36:34.481Z,21.33
2022-08-20T14:41:36.055Z,21.98
2022-08-20T14:46:37.614Z,23.45
2022-08-20T14:51:39.213Z,25.67
2022-08-20T14:56:41.214Z,24.17
2022-08-20T15:01:43.085Z,22.90
2022-08-20T15:06:45.784Z,21.98
2022-08-20T15:11:47.953Z,12.65
2022-08-20T15:16:49.568Z,18.42
2022-08-20T15:21:51.300Z,15.45
2022-08-20T15:26:52.937Z,15.13
2022-08-20T15:31:54.537Z,13.23
2022-08-20T15:36:57.664Z,17.95
2022-08-20T15:41:59.316Z,19.17
2022-08-20T15:47:20.111Z,11.98
2022-08-20T15:52:21.928Z,12.98
2022-08-20T15:57:46.697Z,12.15
2022-08-20T16:03:17.568Z,14.43
2022-08-20T16:08:55.954Z,7.93
2022-08-20T16:14:21.691Z,7.55
2022-08-20T16:19:31.877Z,6.22
2022-08-20T16:24:33.618Z,6.32
2022-08-20T16:30:01.937Z,5.63
2022-08-20T16:35:17.862Z,7.57
2022-08-20T16:40:27.815Z,9.70
2022-08-20T16:45:33.729Z,8.82
2022-08-20T16:50:57.210Z,9.63
2022-08-20T16:55:58.846Z,10.10
2022-08-20T17:01:10.489Z,8.93
2022-08-20T17:06:46.826Z,13.07
2022-08-20T17:11:48.516Z,6.47
2022-08-20T17:16:52.468Z,7.28
2022-08-20T17:21:55.719Z,7.20
2022-08-20T17:26:57.548Z,8.00
2022-08-20T17:32:15.411Z,8.30
2022-08-20T17:37:27.516Z,6.82
2022-08-20T17:42:29.158Z,6.50
2022-08-20T17:47:34.943Z,6.07
2022-08-20T17:52:52.687Z,6.07
2022-08-20T17:57:59.484Z,5.38
2022-08-20T18:03:25.107Z,7.05
2022-08-20T18:08:30.767Z,5.97
2022-08-20T18:13:55.393Z,6.20
2022-08-20T18:19:06.140Z,7.05
2022-08-20T18:24:15.639Z,6.50
2022-08-20T18:29:22.150Z,5.55
2022-08-20T18:34:28.501Z,4.93
2022-08-20T18:39:38.266Z,4.50
2022-08-20T18:44:45.682Z,5.25
2022-08-20T18:50:16.057Z,5.80
2022-08-20T18:55:35.995Z,3.85
2022-08-20T19:00:42.134Z,4.70
2022-08-20T19:05:46.673Z,4.35
2022-08-20T19:11:10.915Z,6.72
2022-08-20T19:16:21.760Z,5.53
2022-08-20T19:21:32.066Z,4.80
2022-08-20T19:26:42.842Z,5.10
2022-08-20T19:31:44.640Z,7.00
2022-08-20T19:36:46.626Z,6.10
2022-08-20T19:41:56.114Z,5.15
2022-08-20T19:46:59.809Z,6.00
2022-08-20T19:52:19.767Z,7.57
2022-08-20T19:57:23.381Z,7.25
2022-08-20T20:02:30.369Z,6.93
2022-08-20T20:07:41.992Z,7.35
2022-08-20T20:12:46.747Z,10.73
2022-08-20T20:17:48.695Z,8.57
2022-08-20T20:22:53.454Z,12.73
2022-08-20T20:27:58.748Z,11.43
2022-08-20T20:33:10.710Z,11.57
2022-08-20T20:38:33.015Z,10.68
2022-08-20T20:43:42.188Z,10.90
2022-08-20T20:48:50.833Z,11.85
2022-08-20T20:53:54.975Z,12.70
2022-08-20T20:59:00.171Z,11.50
2022-08-20T21:04:04.311Z,12.20
2022-08-20T21:09:05.923Z,11.50
2022-08-20T21:14:07.492Z,10.75
2022-08-20T21:19:11.163Z,10.68
2022-08-20T21:24:13.228Z,9.77
2022-08-20T21:29:17.781Z,9.82
2022-08-20T21:34:19.465Z,9.05
2022-08-20T21:39:21.076Z,8.25
2022-08-20T21:44:26.759Z,9.27
2022-08-20T21:49:31.638Z,8.10
2022-08-20T21:54:33.617Z,7.93
2022-08-20T21:59:38.020Z,8.63
2022-08-20T22:04:39.742Z,8.18
2022-08-20T22:09:41.536Z,8.38
2022-08-20T22:14:43.776Z,8.88
2022-08-20T22:19:45.454Z,8.65
2022-08-20T22:24:47.324Z,8.23
2022-08-20T22:29:48.993Z,7.82
2022-08-20T22:34:50.669Z,8.55
2022-08-20T22:39:52.318Z,8.45
2022-08-20T22:44:54.003Z,7.90
2022-08-20T22:49:57.361Z,8.88
2022-08-20T22:54:58.997Z,8.70
2022-08-20T23:00:01.179Z,7.28
2022-08-20T23:05:03.281Z,9.60
2022-08-20T23:10:05.208Z,9.27
2022-08-20T23:15:07.780Z,8.38
2022-08-20T23:20:13.932Z,9.90
2022-08-20T23:25:15.845Z,9.43
2022-08-20T23:30:20.121Z,7.70
2022-08-20T23:35:22.672Z,11.00
2022-08-20T23:40:28.936Z,11.57
2022-08-20T23:45:31.567Z,8.07
2022-08-20T23:50:33.688Z,9.40
2022-08-20T23:55:35.532Z,12.20
